الصفحة الرئيسية
METAR-TAF:

METAR-TAF

مطار :

بروكسل, بلجيكا

مطار بروكسل الدولي

دائرة عرض: 50-54N, خط طول: 004-32E, ارتفاع: 55 متر

مراقبة الطقس الحالي

تاريخ ووقت الإصدار 30 دقيقة قبل الساعة 08:20UTC
ريح 7 عقدة من الشرق/الشمال الشرقي
درجة الحرارة -2°درجة مئوية
الرطوبة 80%
ضغط 1023 hPa
الرؤية 10 كم أو أكثر
الغيوم لا تقل 1500 م ولا وجود لمزنة ركامية السحاب الأسود

METAR: EBBR 220820Z 06007KT CAVOK M02/M05 Q1023 NOSIG

زمن: 09:50 (08:50 UTC)

توقعات

تاريخ ووقت الإصدار 3ساعات و 48 دقيقة قبل الساعة 05:02UTC
التوقعات صالحة من22 الساعة 06 UTC إلى 23 الساعة 12 UTC
ريح 10 عقدة من الشرق/الشمال الشرقي
الرؤية: 7000 متر
نظرية الاحتمالات 30% :
مؤقت
من 22 الساعة 12 UTC إلى 22 الساعة 16 UTC
ريح 15 عقدة من الشرق/الشمال الشرقي تتزايد حتى 25 عقدة

TAF: EBBR 220502Z 2206/2312 06010KT 7000 NSC PROB30 TEMPO 2212/2216 06015G25KT

أرصاد الطقس والتوقعات من أكثر من 4000 مطار (تقارير الطقس للمطار METAR والتنبؤ بالطقس بالمطارTAF).

المحطات المتاحة هي النقط الصفراء والحمراء على الخريطة.

حرك المؤشر فوق النقطة لمعرفة اسم المحطة.

ثم انقر لمعرفة أرصاد وتوقعات الطقس.

لتغيير الخارطة: اضغط على الأزرار الخضراء مع رمز الصليب الأسود للتكبير. على الزر الأخضر مع شرطة للتصغير، أو على الأسهم الخضراء للخرائط المجاورة.


METAR-TAF: